createdAt,value
2022-12-23T00:01:51.196Z,9.30
2022-12-23T00:04:18.225Z,9.30
2022-12-23T00:06:45.055Z,9.30
2022-12-23T00:09:11.938Z,9.30
2022-12-23T00:11:58.725Z,9.30
2022-12-23T00:14:44.949Z,9.30
2022-12-23T00:17:22.028Z,9.30
2022-12-23T00:19:49.851Z,9.20
2022-12-23T00:22:16.705Z,9.20
2022-12-23T00:24:43.624Z,9.20
2022-12-23T00:27:10.851Z,9.20
2022-12-23T00:29:37.624Z,9.10
2022-12-23T00:32:04.796Z,9.00
2022-12-23T00:34:31.731Z,9.00
2022-12-23T00:36:58.523Z,9.00
2022-12-23T00:39:43.810Z,8.90
2022-12-23T00:42:29.812Z,8.80
2022-12-23T00:45:15.712Z,8.70
2022-12-23T00:48:06.461Z,8.70
2022-12-23T00:50:36.502Z,8.70
2022-12-23T00:53:04.397Z,8.70
2022-12-23T00:55:32.113Z,8.70
2022-12-23T00:57:59.095Z,8.70
2022-12-23T01:00:44.580Z,8.70
2022-12-23T01:03:31.824Z,8.70
2022-12-23T01:06:00.698Z,8.60
2022-12-23T01:08:28.038Z,8.60
2022-12-23T01:10:55.104Z,8.60
2022-12-23T01:13:22.045Z,8.60
2022-12-23T01:15:48.919Z,8.50
2022-12-23T01:18:16.086Z,8.40
2022-12-23T01:20:42.951Z,8.40
2022-12-23T01:23:09.812Z,8.40
2022-12-23T01:25:36.802Z,8.30
2022-12-23T01:28:03.716Z,8.30
2022-12-23T01:30:30.650Z,8.10
2022-12-23T01:32:58.099Z,8.10
2022-12-23T01:35:25.001Z,8.10
2022-12-23T01:37:51.842Z,8.10
2022-12-23T01:40:18.797Z,8.00
2022-12-23T01:42:46.643Z,8.10
2022-12-23T01:45:16.376Z,8.10
2022-12-23T01:48:18.364Z,8.20
2022-12-23T01:50:53.297Z,8.10
2022-12-23T01:53:31.486Z,8.10
2022-12-23T01:56:17.097Z,8.00
2022-12-23T01:58:50.964Z,8.00
2022-12-23T02:01:36.797Z,8.00
2022-12-23T02:04:08.877Z,8.00
2022-12-23T02:07:00.486Z,7.90
2022-12-23T02:09:33.962Z,7.80
2022-12-23T02:12:25.869Z,7.80
2022-12-23T02:15:45.609Z,7.80
2022-12-23T02:18:31.113Z,7.70
2022-12-23T02:21:37.445Z,7.70
2022-12-23T02:24:34.537Z,7.70
2022-12-23T02:27:27.253Z,7.70
2022-12-23T02:30:20.441Z,7.70
2022-12-23T02:32:58.326Z,7.70
2022-12-23T02:35:46.222Z,7.70
2022-12-23T02:38:40.437Z,7.60
2022-12-23T02:41:32.016Z,7.60
2022-12-23T02:44:10.586Z,7.60
2022-12-23T02:46:47.463Z,7.60
2022-12-23T02:49:30.230Z,7.60
2022-12-23T02:52:00.940Z,7.60
2022-12-23T02:54:35.251Z,7.60
2022-12-23T02:57:05.755Z,7.60
2022-12-23T02:59:43.864Z,7.50
2022-12-23T03:02:11.145Z,7.50
2022-12-23T03:04:42.391Z,7.50
2022-12-23T03:07:23.883Z,7.50
2022-12-23T03:10:12.488Z,7.50
2022-12-23T03:13:07.002Z,7.40
2022-12-23T03:15:56.233Z,7.40
2022-12-23T03:18:48.011Z,7.40
2022-12-23T03:21:25.446Z,7.40
2022-12-23T03:24:10.760Z,7.30
2022-12-23T03:27:00.919Z,7.20
2022-12-23T03:29:53.831Z,7.20
2022-12-23T03:32:24.770Z,7.20
2022-12-23T03:34:55.103Z,7.10
2022-12-23T03:37:25.997Z,7.10
2022-12-23T03:39:58.582Z,7.10
2022-12-23T03:42:30.185Z,7.10
2022-12-23T03:45:37.066Z,7.10
2022-12-23T03:47:59.595Z,7.00
2022-12-23T03:50:28.633Z,7.00
2022-12-23T03:53:02.601Z,7.00
2022-12-23T03:55:38.738Z,6.90
2022-12-23T03:58:32.894Z,6.80
2022-12-23T04:01:12.169Z,6.80
2022-12-23T04:04:02.584Z,6.70
2022-12-23T04:06:37.550Z,6.70
2022-12-23T04:09:06.847Z,6.80
2022-12-23T04:11:35.973Z,6.70
2022-12-23T04:14:03.004Z,6.70
2022-12-23T04:16:30.634Z,6.80
2022-12-23T04:18:57.876Z,6.70
2022-12-23T04:21:24.716Z,6.70
2022-12-23T04:23:51.516Z,6.70
2022-12-23T04:26:18.328Z,6.70
2022-12-23T04:28:45.158Z,6.70
2022-12-23T04:31:12.475Z,6.70
2022-12-23T04:33:39.360Z,6.70
2022-12-23T04:36:06.327Z,6.60
2022-12-23T04:38:33.202Z,6.60
2022-12-23T04:41:00.590Z,6.60
2022-12-23T04:43:27.356Z,6.70
2022-12-23T04:45:54.554Z,6.70
2022-12-23T04:48:21.541Z,6.60
2022-12-23T04:50:48.465Z,6.00
2022-12-23T04:53:15.250Z,6.60
2022-12-23T04:55:42.037Z,6.60
2022-12-23T04:58:08.857Z,6.60
2022-12-23T05:00:39.706Z,6.60
2022-12-23T05:03:07.003Z,6.60
2022-12-23T05:05:34.499Z,6.60
2022-12-23T05:08:06.596Z,6.50
2022-12-23T05:10:33.485Z,6.50
2022-12-23T05:13:00.336Z,6.50
2022-12-23T05:15:27.219Z,6.50
2022-12-23T05:17:54.436Z,6.50
2022-12-23T05:20:21.596Z,6.40
2022-12-23T05:22:48.454Z,6.40
2022-12-23T05:25:15.694Z,6.40
2022-12-23T05:27:42.473Z,6.40
2022-12-23T05:30:09.935Z,6.40
2022-12-23T05:32:37.014Z,6.50
2022-12-23T05:35:04.367Z,6.40
2022-12-23T05:37:31.761Z,6.40
2022-12-23T05:39:58.529Z,6.40
2022-12-23T05:42:25.429Z,6.40
2022-12-23T05:44:52.598Z,6.50
2022-12-23T05:47:19.402Z,6.40
2022-12-23T05:49:46.199Z,6.30
2022-12-23T05:52:13.092Z,6.40
2022-12-23T05:54:39.878Z,6.40
2022-12-23T05:57:06.721Z,6.40
2022-12-23T05:59:33.623Z,6.40
2022-12-23T06:02:00.609Z,6.30
2022-12-23T06:04:27.701Z,6.30
2022-12-23T06:06:54.582Z,6.20
2022-12-23T06:09:21.393Z,6.30
2022-12-23T06:11:48.318Z,6.20
2022-12-23T06:14:15.099Z,6.20
2022-12-23T06:16:42.065Z,6.20
2022-12-23T06:19:09.464Z,6.30
2022-12-23T06:21:36.830Z,6.20
2022-12-23T06:24:03.824Z,6.20
2022-12-23T06:26:31.098Z,6.30
2022-12-23T06:28:58.342Z,6.30
2022-12-23T06:31:25.304Z,6.30
2022-12-23T06:33:52.125Z,6.30
2022-12-23T06:36:19.352Z,6.20
2022-12-23T06:38:46.601Z,6.30
2022-12-23T06:41:13.745Z,6.30
2022-12-23T06:43:40.619Z,6.40
2022-12-23T06:46:08.009Z,6.40
2022-12-23T06:48:34.932Z,6.50
2022-12-23T06:51:01.745Z,6.40
2022-12-23T06:53:28.468Z,6.50
2022-12-23T06:56:03.001Z,6.50
2022-12-23T06:58:29.933Z,6.50
2022-12-23T07:00:57.201Z,6.50
2022-12-23T07:03:24.263Z,6.50
2022-12-23T07:05:51.946Z,6.50
2022-12-23T07:08:19.722Z,6.60
2022-12-23T07:10:47.238Z,6.60
2022-12-23T07:13:14.166Z,6.60
2022-12-23T07:15:41.340Z,6.60
2022-12-23T07:18:08.124Z,6.60
2022-12-23T07:20:34.903Z,6.80
2022-12-23T07:23:01.859Z,6.90
2022-12-23T07:25:28.783Z,7.00
2022-12-23T07:27:56.500Z,7.10
2022-12-23T07:30:24.138Z,7.20
2022-12-23T07:32:51.797Z,7.40
2022-12-23T07:35:18.864Z,8.70
2022-12-23T07:37:46.116Z,7.60
2022-12-23T07:40:13.049Z,7.70
2022-12-23T07:42:45.790Z,7.90
2022-12-23T07:45:13.150Z,8.00
2022-12-23T07:47:40.001Z,8.10
2022-12-23T07:50:07.547Z,8.30
2022-12-23T07:52:34.340Z,8.40
2022-12-23T07:55:01.135Z,8.40
2022-12-23T07:57:29.319Z,8.60
2022-12-23T07:59:56.166Z,8.80
2022-12-23T08:02:25.347Z,8.90
2022-12-23T08:04:52.458Z,9.10
2022-12-23T08:07:19.274Z,9.20
2022-12-23T08:09:46.070Z,9.40
2022-12-23T08:12:13.839Z,9.60
2022-12-23T08:14:40.628Z,9.90
2022-12-23T08:17:08.892Z,10.20
2022-12-23T08:19:35.755Z,10.50
2022-12-23T08:22:02.933Z,10.80
2022-12-23T08:24:29.784Z,11.20
2022-12-23T08:26:58.224Z,11.50
2022-12-23T08:29:25.031Z,11.90
2022-12-23T08:31:51.911Z,12.30
2022-12-23T08:34:19.413Z,12.60
2022-12-23T08:36:46.228Z,12.70
2022-12-23T08:39:13.047Z,12.80
2022-12-23T08:41:43.077Z,12.70
2022-12-23T08:44:10.001Z,12.60
2022-12-23T08:46:37.450Z,12.40
2022-12-23T08:49:05.384Z,12.20
2022-12-23T08:51:32.828Z,12.00
2022-12-23T08:54:01.549Z,11.90
2022-12-23T08:56:34.232Z,11.70
2022-12-23T08:59:01.629Z,11.60
2022-12-23T09:01:32.201Z,11.80
2022-12-23T09:04:01.888Z,12.10
2022-12-23T09:06:36.575Z,12.40
2022-12-23T09:09:06.358Z,12.60
2022-12-23T09:11:36.539Z,12.80
2022-12-23T09:14:04.594Z,13.00
2022-12-23T09:16:31.847Z,13.20
2022-12-23T09:18:59.033Z,13.50
2022-12-23T09:21:26.133Z,13.80
2022-12-23T09:24:02.016Z,14.00
2022-12-23T09:26:30.532Z,14.40
2022-12-23T09:28:57.495Z,14.70
2022-12-23T09:31:27.990Z,14.90
2022-12-23T09:33:59.704Z,15.10
2022-12-23T09:36:26.587Z,15.40
2022-12-23T09:38:55.423Z,15.70
2022-12-23T09:41:30.999Z,16.20
2022-12-23T09:44:23.079Z,16.60
2022-12-23T09:46:58.263Z,16.90
2022-12-23T09:49:34.460Z,17.10
2022-12-23T09:52:05.168Z,17.20
2022-12-23T09:54:47.432Z,17.30
2022-12-23T09:57:51.866Z,17.70
2022-12-23T10:00:20.256Z,18.20
2022-12-23T10:03:05.444Z,18.40
2022-12-23T10:06:10.151Z,18.70
2022-12-23T10:08:44.980Z,19.00
2022-12-23T10:11:22.459Z,19.30
2022-12-23T10:13:53.166Z,19.70
2022-12-23T10:16:23.922Z,20.10
2022-12-23T10:19:03.089Z,20.50
2022-12-23T10:21:42.207Z,21.20
2022-12-23T10:24:15.400Z,21.70
2022-12-23T10:26:51.115Z,22.50
2022-12-23T10:29:20.820Z,23.30
2022-12-23T10:32:33.728Z,24.10
2022-12-23T10:35:37.387Z,24.80
2022-12-23T10:38:33.795Z,25.70
2022-12-23T10:41:09.433Z,26.40
2022-12-23T10:44:15.397Z,26.90
2022-12-23T10:47:20.107Z,27.80
2022-12-23T10:50:05.144Z,28.20
2022-12-23T10:52:37.014Z,28.40
2022-12-23T10:55:05.321Z,28.30
2022-12-23T10:57:33.144Z,28.80
2022-12-23T11:00:00.006Z,28.80
2022-12-23T11:02:49.843Z,28.80
2022-12-23T11:05:24.130Z,28.40
2022-12-23T11:07:51.636Z,28.40
2022-12-23T11:10:26.440Z,28.10
2022-12-23T11:12:53.972Z,28.10
2022-12-23T11:15:34.470Z,28.40
2022-12-23T11:18:07.405Z,28.70
2022-12-23T11:20:36.313Z,28.80
2022-12-23T11:23:05.030Z,29.00
2022-12-23T11:25:41.134Z,28.70
2022-12-23T11:28:11.202Z,29.00
2022-12-23T11:30:50.375Z,29.60
2022-12-23T11:33:29.812Z,29.60
2022-12-23T11:36:23.884Z,29.80
2022-12-23T11:39:23.915Z,29.80
2022-12-23T11:41:54.999Z,30.30
2022-12-23T11:44:33.730Z,30.80
2022-12-23T11:47:19.132Z,30.80
2022-12-23T11:49:50.809Z,30.80
2022-12-23T11:52:21.075Z,31.30
2022-12-23T11:54:59.481Z,31.00
2022-12-23T11:57:48.471Z,31.00
2022-12-23T12:00:38.954Z,31.20
2022-12-23T12:03:07.356Z,31.70
2022-12-23T12:05:38.094Z,32.30
2022-12-23T12:08:13.627Z,32.00
2022-12-23T12:10:41.888Z,31.20
2022-12-23T12:13:20.552Z,30.90
2022-12-23T12:15:57.340Z,30.30
2022-12-23T12:18:24.574Z,30.40
2022-12-23T12:20:58.932Z,30.30
2022-12-23T12:23:48.608Z,30.90
2022-12-23T12:26:34.347Z,31.10
2022-12-23T12:29:16.155Z,30.70
2022-12-23T12:31:45.285Z,30.60
2022-12-23T12:34:40.183Z,30.20
2022-12-23T12:37:30.084Z,30.10
2022-12-23T12:40:03.976Z,30.30
2022-12-23T12:42:55.616Z,30.20
2022-12-23T12:45:37.758Z,29.80
2022-12-23T12:48:44.920Z,28.90
2022-12-23T12:51:19.969Z,28.70
2022-12-23T12:54:15.744Z,28.60
2022-12-23T12:56:50.220Z,28.90
2022-12-23T12:59:20.370Z,29.20
2022-12-23T13:02:12.070Z,28.90
2022-12-23T13:05:00.612Z,28.90
2022-12-23T13:07:30.241Z,29.20
2022-12-23T13:10:14.258Z,29.40
2022-12-23T13:13:03.919Z,29.10
2022-12-23T13:16:02.179Z,29.80
2022-12-23T13:18:44.868Z,29.60
2022-12-23T13:21:32.355Z,29.50
2022-12-23T13:24:16.482Z,28.80
2022-12-23T13:26:52.848Z,28.50
2022-12-23T13:29:22.385Z,29.10
2022-12-23T13:32:00.320Z,29.20
2022-12-23T13:34:54.726Z,29.20
2022-12-23T13:37:30.441Z,29.00
2022-12-23T13:40:11.671Z,29.00
2022-12-23T13:42:45.263Z,29.50
2022-12-23T13:45:17.443Z,29.60
2022-12-23T13:48:05.058Z,29.70
2022-12-23T13:50:35.987Z,29.80
2022-12-23T13:53:32.332Z,30.30
2022-12-23T13:56:37.704Z,30.60
2022-12-23T13:59:12.184Z,30.30
2022-12-23T14:01:42.235Z,30.30
2022-12-23T14:04:31.102Z,30.40
2022-12-23T14:07:03.782Z,30.90
2022-12-23T14:09:35.499Z,30.60
2022-12-23T14:12:28.797Z,29.90
2022-12-23T14:15:23.768Z,29.80
2022-12-23T14:18:09.400Z,29.60
2022-12-23T14:21:08.488Z,29.60
2022-12-23T14:24:04.749Z,29.90
2022-12-23T14:27:04.531Z,29.90
2022-12-23T14:30:15.254Z,29.50
2022-12-23T14:32:52.140Z,29.10
2022-12-23T14:35:21.752Z,28.90
2022-12-23T14:38:08.792Z,28.70
2022-12-23T14:40:38.605Z,28.60
2022-12-23T14:43:26.668Z,28.50
2022-12-23T14:45:58.650Z,28.30
2022-12-23T14:48:34.523Z,27.90
2022-12-23T14:51:10.883Z,27.80
2022-12-23T14:53:57.695Z,27.40
2022-12-23T14:56:39.752Z,26.60
2022-12-23T14:59:12.825Z,25.60
2022-12-23T15:01:49.078Z,24.30
2022-12-23T15:04:23.941Z,23.40
2022-12-23T15:06:58.761Z,22.50
2022-12-23T15:09:32.975Z,21.60
2022-12-23T15:12:04.733Z,20.90
2022-12-23T15:14:34.407Z,20.20
2022-12-23T15:17:27.966Z,19.50
2022-12-23T15:20:15.305Z,18.90
2022-12-23T15:22:44.346Z,18.50
2022-12-23T15:25:23.643Z,18.10
2022-12-23T15:27:55.917Z,17.70
2022-12-23T15:30:27.861Z,17.50
2022-12-23T15:33:03.345Z,17.10
2022-12-23T15:35:38.597Z,16.90
2022-12-23T15:38:06.200Z,16.80
2022-12-23T15:40:35.873Z,16.60
2022-12-23T15:43:23.791Z,16.50
2022-12-23T15:45:51.158Z,16.40
2022-12-23T15:48:31.817Z,16.30
2022-12-23T15:51:06.894Z,16.10
2022-12-23T15:53:37.623Z,15.80
2022-12-23T15:56:09.316Z,17.00
2022-12-23T15:58:40.490Z,15.50
2022-12-23T16:01:13.276Z,15.20
2022-12-23T16:03:43.099Z,15.10
2022-12-23T16:06:21.308Z,15.00
2022-12-23T16:09:23.484Z,14.80
2022-12-23T16:12:04.052Z,14.70
2022-12-23T16:14:30.948Z,14.60
2022-12-23T16:17:08.397Z,14.50
2022-12-23T16:19:54.524Z,14.40
2022-12-23T16:22:29.259Z,14.40
2022-12-23T16:25:11.690Z,14.30
2022-12-23T16:27:45.608Z,14.30
2022-12-23T16:30:27.294Z,14.20
2022-12-23T16:32:57.706Z,14.20
2022-12-23T16:35:40.126Z,14.10
2022-12-23T16:38:18.142Z,14.00
2022-12-23T16:40:47.662Z,13.90
2022-12-23T16:43:16.309Z,13.90
2022-12-23T16:45:44.772Z,13.80
2022-12-23T16:48:31.539Z,13.80
2022-12-23T16:50:59.677Z,13.70
2022-12-23T16:53:27.145Z,13.60
2022-12-23T16:56:00.315Z,13.50
2022-12-23T16:58:27.874Z,13.50
2022-12-23T17:00:55.958Z,13.40
2022-12-23T17:03:23.265Z,13.30
2022-12-23T17:05:50.529Z,13.20
2022-12-23T17:08:17.366Z,13.10
2022-12-23T17:10:45.107Z,13.00
2022-12-23T17:13:14.098Z,13.00
2022-12-23T17:15:41.001Z,13.00
2022-12-23T17:18:16.630Z,13.00
2022-12-23T17:20:47.862Z,12.90
2022-12-23T17:23:40.932Z,12.90
2022-12-23T17:26:09.264Z,12.80
2022-12-23T17:28:36.118Z,12.70
2022-12-23T17:31:08.637Z,12.70
2022-12-23T17:33:39.580Z,12.70
2022-12-23T17:36:06.710Z,12.50
2022-12-23T17:38:33.592Z,12.40
2022-12-23T17:41:00.513Z,12.40
2022-12-23T17:43:27.646Z,12.30
2022-12-23T17:45:55.249Z,12.30
2022-12-23T17:48:26.563Z,12.20
2022-12-23T17:50:56.942Z,12.20
2022-12-23T17:53:23.719Z,12.00
2022-12-23T17:55:50.885Z,11.90
2022-12-23T17:58:17.785Z,11.90
2022-12-23T18:00:44.761Z,11.90
2022-12-23T18:03:22.760Z,11.90
2022-12-23T18:05:54.250Z,11.80
2022-12-23T18:08:26.099Z,11.70
2022-12-23T18:10:53.293Z,11.70
2022-12-23T18:13:21.090Z,11.60
2022-12-23T18:15:48.583Z,11.60
2022-12-23T18:18:23.928Z,11.60
2022-12-23T18:20:56.623Z,11.60
2022-12-23T18:23:32.540Z,11.50
2022-12-23T18:26:00.703Z,11.40
2022-12-23T18:28:27.787Z,11.40
2022-12-23T18:30:58.306Z,11.30
2022-12-23T18:33:28.777Z,11.30
2022-12-23T18:35:56.068Z,11.20
2022-12-23T18:38:23.524Z,11.20
2022-12-23T18:40:53.961Z,11.20
2022-12-23T18:43:23.290Z,11.20
2022-12-23T18:45:53.592Z,11.20
2022-12-23T18:48:21.510Z,11.10
2022-12-23T18:50:48.590Z,11.10
2022-12-23T18:53:24.518Z,11.10
2022-12-23T18:55:53.629Z,11.00
2022-12-23T18:58:22.057Z,11.00
2022-12-23T19:00:50.745Z,10.80
2022-12-23T19:03:25.029Z,10.80
2022-12-23T19:05:53.623Z,10.80
2022-12-23T19:08:26.792Z,10.70
2022-12-23T19:10:55.913Z,10.70
2022-12-23T19:13:23.510Z,10.70
2022-12-23T19:15:50.845Z,10.70
2022-12-23T19:18:20.227Z,10.80
2022-12-23T19:20:48.500Z,10.70
2022-12-23T19:23:15.719Z,10.50
2022-12-23T19:25:49.282Z,10.30
2022-12-23T19:28:22.057Z,10.30
2022-12-23T19:30:49.295Z,10.30
2022-12-23T19:33:16.304Z,10.40
2022-12-23T19:35:44.319Z,10.40
2022-12-23T19:38:12.355Z,10.40
2022-12-23T19:40:40.325Z,10.50
2022-12-23T19:43:08.241Z,10.50
2022-12-23T19:45:35.415Z,10.50
2022-12-23T19:48:02.316Z,10.50
2022-12-23T19:50:29.208Z,10.40
2022-12-23T19:52:56.455Z,10.40
2022-12-23T19:55:23.625Z,10.50
2022-12-23T19:57:50.451Z,10.50
2022-12-23T20:00:17.421Z,10.50
2022-12-23T20:02:44.302Z,10.50
2022-12-23T20:05:11.171Z,10.60
2022-12-23T20:07:38.132Z,10.50
2022-12-23T20:10:06.286Z,10.40
2022-12-23T20:12:33.555Z,10.40
2022-12-23T20:15:00.492Z,10.30
2022-12-23T20:17:27.318Z,10.40
2022-12-23T20:19:54.144Z,10.30
2022-12-23T20:22:21.018Z,10.30
2022-12-23T20:24:47.909Z,10.30
2022-12-23T20:27:16.123Z,10.30
2022-12-23T20:29:43.479Z,10.10
2022-12-23T20:32:10.774Z,10.10
2022-12-23T20:34:39.949Z,10.00
2022-12-23T20:37:08.372Z,9.90
2022-12-23T20:39:35.814Z,9.90
2022-12-23T20:42:02.832Z,9.90
2022-12-23T20:44:34.992Z,9.90
2022-12-23T20:47:03.387Z,10.00
2022-12-23T20:49:30.876Z,10.10
2022-12-23T20:51:58.177Z,10.10
2022-12-23T20:54:31.608Z,10.10
2022-12-23T20:57:01.270Z,10.00
2022-12-23T20:59:28.225Z,10.00
2022-12-23T21:01:56.466Z,10.00
2022-12-23T21:04:23.757Z,10.00
2022-12-23T21:06:51.096Z,9.90
2022-12-23T21:09:18.449Z,9.90
2022-12-23T21:11:47.152Z,9.90
2022-12-23T21:14:14.728Z,10.00
2022-12-23T21:16:42.768Z,10.10
2022-12-23T21:19:23.829Z,10.00
2022-12-23T21:21:51.591Z,10.00
2022-12-23T21:24:19.815Z,10.10
2022-12-23T21:26:55.558Z,10.00
2022-12-23T21:29:23.812Z,10.10
2022-12-23T21:31:51.964Z,10.00
2022-12-23T21:34:18.813Z,9.90
2022-12-23T21:36:45.748Z,9.80
2022-12-23T21:39:15.539Z,9.80
2022-12-23T21:41:42.591Z,9.70
2022-12-23T21:44:11.821Z,9.80
2022-12-23T21:46:39.136Z,9.70
2022-12-23T21:49:05.971Z,9.80
2022-12-23T21:51:40.158Z,9.70
2022-12-23T21:54:09.602Z,9.70
2022-12-23T21:56:36.745Z,9.70
2022-12-23T21:59:06.457Z,9.70
2022-12-23T22:01:33.344Z,9.70
2022-12-23T22:04:00.779Z,9.70
2022-12-23T22:06:30.252Z,9.70
2022-12-23T22:08:59.020Z,9.80
2022-12-23T22:11:29.133Z,9.80
2022-12-23T22:13:57.706Z,9.90
2022-12-23T22:16:26.895Z,10.10
2022-12-23T22:18:55.568Z,10.30
2022-12-23T22:21:25.442Z,10.40
2022-12-23T22:23:54.203Z,10.40
2022-12-23T22:26:25.605Z,10.30
2022-12-23T22:28:57.566Z,10.30
2022-12-23T22:31:48.627Z,10.30
2022-12-23T22:34:20.867Z,10.30
2022-12-23T22:36:48.409Z,10.30
2022-12-23T22:39:20.601Z,10.30
2022-12-23T22:41:50.224Z,10.40
2022-12-23T22:44:17.342Z,10.40
2022-12-23T22:46:44.826Z,10.50
2022-12-23T22:49:17.534Z,10.50
2022-12-23T22:51:45.120Z,10.50
2022-12-23T22:54:12.803Z,10.50
2022-12-23T22:56:39.830Z,10.40
2022-12-23T22:59:06.841Z,10.40
2022-12-23T23:01:36.160Z,10.40
2022-12-23T23:04:04.423Z,10.40
2022-12-23T23:06:39.314Z,10.50
2022-12-23T23:09:12.824Z,10.40
2022-12-23T23:11:40.622Z,10.50
2022-12-23T23:14:07.565Z,10.50
2022-12-23T23:16:34.909Z,10.50
2022-12-23T23:19:02.811Z,10.50
2022-12-23T23:21:29.731Z,10.50
2022-12-23T23:23:56.620Z,10.40
2022-12-23T23:26:27.391Z,10.40
2022-12-23T23:28:56.284Z,10.40
2022-12-23T23:34:11.250Z,10.10
2022-12-23T23:36:38.193Z,10.00
2022-12-23T23:39:05.089Z,9.70
2022-12-23T23:41:32.060Z,9.60
2022-12-23T23:43:58.938Z,9.60
2022-12-23T23:46:25.821Z,9.60
2022-12-23T23:48:53.071Z,9.50
2022-12-23T23:51:19.915Z,9.50
2022-12-23T23:53:46.719Z,9.60
2022-12-23T23:56:13.557Z,9.70
2022-12-23T23:58:40.454Z,9.60
